Time;durP1;ratioP1;P1;durP2;ratioP2;P2;SDS_P1;SDS_P2;PMS_P1;PMS_P2;Temp;Humidity;BMP_temperature;BMP_pressure;BME280_temperature;BME280_humidity;BME280_pressure;Samples;Min_cycle;Max_cycle;Signal;HPM_P1;HPM_P2
2021/12/29 09:12:06;;;;;;;2.63;1.63;;;8.50;99.90;;;;;;738863;24;21612;-92
2021/12/29 09:14:38;;;;;;;3.07;1.50;;;8.60;99.90;;;;;;4787701;29;20501;-93
2021/12/29 09:17:05;;;;;;;2.57;1.87;;;8.70;99.90;;;;;;4778706;29;20469;-93
2021/12/29 09:19:44;;;;;;;;;;;;;;;;;;;;;
2021/12/29 09:22:18;;;;;;;39.37;35.27;;;9.00;99.90;;;;;;4777341;29;20204;-96
2021/12/29 09:24:46;;;;;;;5.43;3.57;;;9.40;99.90;;;;;;4764470;29;20473;-96
2021/12/29 09:27:13;;;;;;;9.70;7.80;;;9.50;99.90;;;;;;4769054;29;20223;-96
2021/12/29 09:29:39;;;;;;;2.00;1.40;;;9.50;99.90;;;;;;4748071;29;20522;-95
2021/12/29 09:32:05;;;;;;;3.10;1.77;;;9.60;99.90;;;;;;4761158;29;20543;-92
2021/12/29 09:34:35;;;;;;;3.63;1.50;;;9.80;99.90;;;;;;4764044;29;20466;-95
2021/12/29 09:37:18;;;;;;;1.40;0.73;;;10.10;99.90;;;;;;4773972;29;21324;-91
2021/12/29 09:39:43;;;;;;;1.77;1.37;;;10.10;99.90;;;;;;4749435;29;20466;-93
2021/12/29 09:42:09;;;;;;;1.70;0.87;;;9.90;99.90;;;;;;4758788;29;20223;-95
2021/12/29 09:44:37;;;;;;;1.27;1.00;;;9.80;99.90;;;;;;4762732;29;20247;-95
2021/12/29 09:47:33;;;;;;;2.67;1.40;;;9.60;99.90;;;;;;4761979;29;20232;-96
2021/12/29 09:49:59;;;;;;;3.03;1.20;;;9.50;99.90;;;;;;4776580;29;20708;-96
2021/12/29 09:52:33;;;;;;;1.10;1.00;;;9.50;99.90;;;;;;4772179;29;21299;-95
2021/12/29 09:55:04;;;;;;;3.53;1.17;;;9.50;99.90;;;;;;4763932;29;20295;-94
2021/12/29 09:57:34;;;;;;;1.97;1.13;;;9.50;99.90;;;;;;4769959;29;21092;-95
2021/12/29 10:00:08;;;;;;;1.30;1.20;;;9.50;99.90;;;;;;4756246;29;20865;-96
2021/12/29 10:02:36;;;;;;;2.67;1.60;;;9.70;99.90;;;;;;4760351;29;20750;-95
2021/12/29 10:05:04;;;;;;;2.33;2.13;;;9.70;99.90;;;;;;4763888;29;20705;-96
2021/12/29 10:07:32;;;;;;;2.73;1.80;;;9.80;99.90;;;;;;4750863;29;20469;-96
2021/12/29 10:10:17;;;;;;;2.63;1.30;;;9.90;99.90;;;;;;4783692;29;20452;-94
2021/12/29 10:12:50;;;;;;;4.70;1.60;;;9.80;99.90;;;;;;4781116;29;20508;-95
2021/12/29 10:15:18;;;;;;;4.30;1.73;;;9.80;99.90;;;;;;4765171;29;20481;-95
2021/12/29 10:17:44;;;;;;;2.40;1.40;;;9.90;99.90;;;;;;4768334;29;20481;-96
2021/12/29 10:20:14;;;;;;;2.17;1.60;;;9.90;99.90;;;;;;4764982;29;20711;-96
2021/12/29 10:22:40;;;;;;;2.53;1.40;;;9.90;99.90;;;;;;4787991;29;20199;-95
2021/12/29 10:25:17;;;;;;;2.20;1.57;;;9.90;99.90;;;;;;4758006;29;20478;-95
2021/12/29 10:27:43;;;;;;;3.40;1.30;;;9.90;99.90;;;;;;4759383;29;20510;-96
2021/12/29 10:30:28;;;;;;;3.80;1.50;;;10.00;99.90;;;;;;4760620;29;20469;-95
2021/12/29 10:32:56;;;;;;;3.07;1.00;;;10.00;99.90;;;;;;4745712;29;20525;-95
2021/12/29 10:35:28;;;;;;;2.13;1.30;;;10.10;99.90;;;;;;4747249;29;20477;-95
2021/12/29 10:38:08;;;;;;;4.47;1.00;;;10.10;99.90;;;;;;4749706;29;20514;-95
2021/12/29 10:40:40;;;;;;;2.80;1.60;;;10.00;99.90;;;;;;4778590;29;20469;-95
2021/12/29 10:43:06;;;;;;;2.53;1.00;;;10.10;99.90;;;;;;4765609;29;20468;-96
2021/12/29 10:45:39;;;;;;;3.27;1.00;;;10.10;99.90;;;;;;4761866;29;20544;-95
2021/12/29 10:48:20;;;;;;;2.30;1.00;;;10.10;99.90;;;;;;4765000;29;20702;-95
2021/12/29 10:51:31;;;;;;;1.93;0.80;;;10.10;99.90;;;;;;4787593;29;20660;-96
2021/12/29 10:54:36;;;;;;;3.00;0.90;;;10.10;99.90;;;;;;4781812;29;20465;-95
2021/12/29 10:57:20;;;;;;;1.40;0.60;;;10.10;99.90;;;;;;4745808;29;20469;-94
2021/12/29 10:59:59;;;;;;;1.30;1.00;;;10.20;99.90;;;;;;4773600;29;20489;-96
2021/12/29 11:02:42;;;;;;;1.30;1.20;;;10.30;99.90;;;;;;4777622;29;20481;-95
2021/12/29 11:07:54;;;;;;;1.73;1.20;;;10.30;99.90;;;;;;4781153;29;20503;-94
2021/12/29 11:10:28;;;;;;;3.13;1.07;;;10.30;99.90;;;;;;4759136;29;20485;-94
2021/12/29 11:12:55;;;;;;;4.20;1.53;;;10.20;99.90;;;;;;4775824;29;20453;-95
2021/12/29 11:15:41;;;;;;;4.83;1.80;;;10.10;99.90;;;;;;4751366;29;20477;-94
2021/12/29 11:18:11;;;;;;;2.10;1.60;;;10.00;99.90;;;;;;4780895;29;21419;-94
2021/12/29 11:20:39;;;;;;;3.60;1.40;;;9.90;99.90;;;;;;4757280;29;22288;-94
2021/12/29 11:23:19;;;;;;;3.10;1.20;;;10.00;99.90;;;;;;4777628;29;20457;-94
2021/12/29 11:25:56;;;;;;;;;;;;;;;;;;;;;
2021/12/29 11:28:31;;;;;;;2.40;1.27;;;9.90;99.90;;;;;;4780828;29;20457;-95
2021/12/29 11:31:03;;;;;;;2.27;1.23;;;9.90;99.90;;;;;;4753481;29;20493;-93
2021/12/29 11:33:53;;;;;;;3.00;1.87;;;10.00;99.90;;;;;;4773393;29;20472;-94
2021/12/29 11:36:21;;;;;;;3.10;1.57;;;10.00;99.90;;;;;;4775167;29;20467;-94
2021/12/29 11:38:47;;;;;;;1.90;1.20;;;10.00;99.90;;;;;;4758302;29;20461;-94
2021/12/29 11:41:17;;;;;;;3.33;1.40;;;10.00;99.90;;;;;;4755563;29;20531;-94
2021/12/29 11:43:45;;;;;;;3.27;1.40;;;10.00;99.90;;;;;;4769664;29;20461;-95
2021/12/29 11:46:13;;;;;;;1.70;1.10;;;10.10;99.90;;;;;;4762427;29;20585;-94
2021/12/29 11:48:39;;;;;;;3.10;1.40;;;10.10;99.90;;;;;;4762123;29;20457;-96
2021/12/29 11:51:15;;;;;;;3.10;1.07;;;10.10;99.90;;;;;;4761331;29;20546;-96
2021/12/29 11:53:47;;;;;;;7.80;1.60;;;10.10;99.90;;;;;;4771843;29;20446;-94
2021/12/29 11:56:17;;;;;;;5.97;1.80;;;10.10;99.90;;;;;;4761141;29;20816;-95
2021/12/29 12:01:17;;;;;;;2.83;1.67;;;10.10;99.90;;;;;;4783758;29;20469;-94
2021/12/29 12:03:55;;;;;;;5.73;1.77;;;10.10;99.90;;;;;;4755694;29;20461;-95
2021/12/29 12:06:29;;;;;;;4.80;2.10;;;10.20;99.90;;;;;;4759524;29;20605;-96
2021/12/29 12:09:07;;;;;;;2.00;1.67;;;10.30;99.90;;;;;;4759751;29;20477;-95
2021/12/29 12:11:51;;;;;;;2.90;1.50;;;10.30;99.90;;;;;;4757839;29;20811;-96
2021/12/29 12:14:25;;;;;;;5.90;1.60;;;10.30;99.90;;;;;;4754886;29;20469;-95
2021/12/29 12:16:52;;;;;;;4.87;2.20;;;10.40;99.90;;;;;;4757912;29;20860;-94
2021/12/29 12:19:26;;;;;;;3.30;1.83;;;10.40;99.90;;;;;;4758334;29;20504;-96
2021/12/29 12:22:06;;;;;;;3.60;2.13;;;10.50;99.90;;;;;;4762062;29;20477;-94
2021/12/29 12:24:34;;;;;;;5.53;2.10;;;10.50;99.90;;;;;;4762564;29;20477;-94
2021/12/29 12:27:15;;;;;;;2.93;1.70;;;10.50;99.90;;;;;;4778944;29;20493;-96
2021/12/29 12:29:44;;;;;;;5.50;1.93;;;10.60;99.90;;;;;;4771077;29;20477;-91
2021/12/29 12:32:21;;;;;;;2.90;1.97;;;10.50;99.90;;;;;;4775075;29;20470;-92
2021/12/29 12:34:50;;;;;;;2.13;1.40;;;10.50;99.90;;;;;;4774845;29;20479;-93
2021/12/29 12:37:22;;;;;;;1.70;1.60;;;10.50;99.90;;;;;;4755144;29;20519;-92
2021/12/29 12:40:00;;;;;;;2.23;1.60;;;10.40;99.90;;;;;;4751890;29;20958;-93
2021/12/29 12:42:29;;;;;;;2.57;1.40;;;10.40;99.90;;;;;;4760780;29;20465;-95
2021/12/29 12:45:03;;;;;;;3.73;1.70;;;10.40;99.90;;;;;;4740394;29;20468;-94
2021/12/29 12:47:33;;;;;;;2.90;1.47;;;10.40;99.90;;;;;;4743492;29;21996;-91
2021/12/29 12:50:03;;;;;;;7.67;1.90;;;10.30;99.90;;;;;;4733411;29;20465;-91
2021/12/29 12:52:41;;;;;;;2.77;1.10;;;10.40;99.90;;;;;;4741607;29;21997;-91
2021/12/29 12:55:12;;;;;;;4.00;1.43;;;10.40;99.90;;;;;;4751829;29;21116;-92
2021/12/29 12:57:41;;;;;;;3.30;1.30;;;10.40;99.90;;;;;;4754529;29;21145;-91
2021/12/29 13:00:27;;;;;;;5.03;1.80;;;10.40;99.90;;;;;;4749402;29;21048;-92
2021/12/29 13:02:56;;;;;;;3.43;1.70;;;10.40;99.90;;;;;;4752182;29;20461;-92
2021/12/29 13:05:24;;;;;;;2.13;1.40;;;10.40;99.90;;;;;;4772590;29;20967;-90
2021/12/29 13:08:13;;;;;;;2.50;1.53;;;10.30;99.90;;;;;;4750303;29;20466;-92
2021/12/29 13:10:47;;;;;;;5.10;1.53;;;10.30;99.90;;;;;;4747690;29;20461;-91
2021/12/29 13:13:20;;;;;;;4.17;1.43;;;10.20;99.90;;;;;;4745915;29;20485;-91
2021/12/29 13:16:23;;;;;;;5.77;1.60;;;10.20;99.90;;;;;;4755844;29;20460;-95
2021/12/29 13:19:09;;;;;;;;;;;;;;;;;;;;;
2021/12/29 13:21:48;;;;;;;4.20;1.60;;;10.20;99.90;;;;;;4766818;29;21207;-96
